createdAt,value
2019-05-10T00:01:32.603Z,12.25
2019-05-10T00:04:06.307Z,11.25
2019-05-10T00:06:40.030Z,9.50
2019-05-10T00:09:13.749Z,10.25
2019-05-10T00:11:49.387Z,9.25
2019-05-10T00:14:22.881Z,9.00
2019-05-10T00:16:56.583Z,10.25
2019-05-10T00:19:30.295Z,12.00
2019-05-10T00:22:04.005Z,13.25
2019-05-10T00:24:37.738Z,12.00
2019-05-10T00:27:11.457Z,13.25
2019-05-10T00:29:45.196Z,13.00
2019-05-10T00:32:18.912Z,12.60
2019-05-10T00:34:52.613Z,11.50
2019-05-10T00:37:26.332Z,14.50
2019-05-10T00:40:00.245Z,12.25
2019-05-10T00:42:33.955Z,14.40
2019-05-10T00:45:07.655Z,13.00
2019-05-10T00:47:41.847Z,14.00
2019-05-10T00:50:15.574Z,13.00
2019-05-10T00:52:49.287Z,13.50
2019-05-10T00:55:23.004Z,14.40
2019-05-10T00:57:56.707Z,14.75
2019-05-10T01:00:30.423Z,14.25
2019-05-10T01:03:04.136Z,16.25
2019-05-10T01:05:37.853Z,17.75
2019-05-10T01:08:11.584Z,14.50
2019-05-10T01:10:45.284Z,15.80
2019-05-10T01:13:18.987Z,16.50
2019-05-10T01:15:52.796Z,16.75
2019-05-10T01:18:26.500Z,19.50
2019-05-10T01:21:00.231Z,17.00
2019-05-10T01:23:33.940Z,17.75
2019-05-10T01:26:07.657Z,17.25
2019-05-10T01:28:41.396Z,18.80
2019-05-10T01:31:15.100Z,18.75
2019-05-10T01:33:49.399Z,18.75
2019-05-10T01:36:23.272Z,20.00
2019-05-10T01:38:56.986Z,18.00
2019-05-10T01:41:30.684Z,20.75
2019-05-10T01:44:04.418Z,21.00
2019-05-10T01:46:38.136Z,17.25
2019-05-10T01:49:11.846Z,19.25
2019-05-10T01:51:45.947Z,21.75
2019-05-10T01:54:19.649Z,23.75
2019-05-10T01:56:53.373Z,24.20
2019-05-10T01:59:27.085Z,22.50
2019-05-10T02:02:00.782Z,22.50
2019-05-10T02:04:34.969Z,23.50
2019-05-10T02:07:08.703Z,21.25
2019-05-10T02:09:42.563Z,22.50
2019-05-10T02:12:16.279Z,21.50
2019-05-10T02:14:49.986Z,21.00
2019-05-10T02:17:23.942Z,18.25
2019-05-10T02:19:57.661Z,20.00
2019-05-10T02:22:31.379Z,18.75
2019-05-10T02:25:05.661Z,18.75
2019-05-10T02:27:39.387Z,18.00
2019-05-10T02:30:13.582Z,19.20
2019-05-10T02:32:47.298Z,18.00
2019-05-10T02:35:21.005Z,21.50
2019-05-10T02:37:54.712Z,22.00
2019-05-10T02:40:28.455Z,21.60
2019-05-10T02:43:02.169Z,23.00
2019-05-10T02:45:35.904Z,22.00
2019-05-10T02:48:09.619Z,22.00
2019-05-10T02:50:43.381Z,24.20
2019-05-10T02:53:17.080Z,24.25
2019-05-10T02:55:51.092Z,22.75
2019-05-10T02:58:24.879Z,26.00
2019-05-10T03:00:59.952Z,23.00
2019-05-10T03:03:33.665Z,23.25
2019-05-10T03:06:07.364Z,22.25
2019-05-10T03:08:46.610Z,16.00
2019-05-10T03:11:20.401Z,23.00
2019-05-10T03:13:54.099Z,23.00
2019-05-10T03:16:27.811Z,22.00
2019-05-10T03:19:01.526Z,18.20
2019-05-10T03:21:35.774Z,21.50
2019-05-10T03:24:09.493Z,21.00
2019-05-10T03:26:51.069Z,20.50
2019-05-10T03:29:18.612Z,19.33
2019-05-10T03:31:52.316Z,19.25
2019-05-10T03:34:26.041Z,21.00
2019-05-10T03:36:59.779Z,22.80
2019-05-10T03:39:33.520Z,21.40
2019-05-10T03:42:07.215Z,18.75
2019-05-10T03:44:40.938Z,21.00
2019-05-10T03:47:14.642Z,22.00
2019-05-10T03:49:48.351Z,21.75
2019-05-10T03:52:22.104Z,20.25
2019-05-10T03:54:55.879Z,21.50
2019-05-10T03:57:29.612Z,19.60
2019-05-10T04:00:06.222Z,18.75
2019-05-10T04:02:39.971Z,19.60
2019-05-10T04:05:13.872Z,19.50
2019-05-10T04:07:47.650Z,18.00
2019-05-10T04:10:21.446Z,15.75
2019-05-10T04:12:55.148Z,17.75
2019-05-10T04:15:28.861Z,16.75
2019-05-10T04:18:02.581Z,17.25
2019-05-10T04:20:36.292Z,17.00
2019-05-10T04:23:10.041Z,15.20
2019-05-10T04:25:43.759Z,20.75
2019-05-10T04:28:17.452Z,17.60
2019-05-10T04:30:51.159Z,17.50
2019-05-10T04:33:24.901Z,18.75
2019-05-10T04:35:58.599Z,18.25
2019-05-10T04:38:32.321Z,17.25
2019-05-10T04:41:06.024Z,17.40
2019-05-10T04:43:39.742Z,18.25
2019-05-10T04:46:13.456Z,16.00
2019-05-10T04:48:47.177Z,16.50
2019-05-10T04:51:20.893Z,18.75
2019-05-10T04:53:54.598Z,16.00
2019-05-10T04:56:28.307Z,18.00
2019-05-10T04:59:02.040Z,18.00
2019-05-10T05:01:35.760Z,16.75
2019-05-10T05:04:09.482Z,16.00
2019-05-10T05:06:43.192Z,18.40
2019-05-10T05:09:16.912Z,19.00
2019-05-10T05:11:50.635Z,18.00
2019-05-10T05:14:24.348Z,17.50
2019-05-10T05:16:58.114Z,19.00
2019-05-10T05:19:32.041Z,17.00
2019-05-10T05:22:05.802Z,17.00
2019-05-10T05:24:39.520Z,18.25
2019-05-10T05:27:17.937Z,20.20
2019-05-10T05:29:51.667Z,20.25
2019-05-10T05:32:25.382Z,19.50
2019-05-10T05:34:59.086Z,20.00
2019-05-10T05:37:32.802Z,20.25
2019-05-10T05:40:07.248Z,20.50
2019-05-10T05:42:40.980Z,17.75
2019-05-10T05:45:14.756Z,15.00
2019-05-10T05:47:51.016Z,20.50
2019-05-10T05:50:24.707Z,16.75
2019-05-10T05:52:58.428Z,17.00
2019-05-10T05:55:32.346Z,16.50
2019-05-10T05:58:08.676Z,16.50
2019-05-10T06:00:44.687Z,17.00
2019-05-10T06:03:19.403Z,19.25
2019-05-10T06:05:52.378Z,18.00
2019-05-10T06:08:26.101Z,19.25
2019-05-10T06:11:00.249Z,16.50
2019-05-10T06:13:34.106Z,15.25
2019-05-10T06:16:12.781Z,14.25
2019-05-10T06:18:47.383Z,12.75
2019-05-10T06:21:24.822Z,13.75
2019-05-10T06:23:54.062Z,14.00
2019-05-10T06:26:28.793Z,11.50
2019-05-10T06:29:04.546Z,11.25
2019-05-10T06:31:38.087Z,10.50
2019-05-10T06:34:11.830Z,10.75
2019-05-10T06:36:45.552Z,9.80
2019-05-10T06:39:19.244Z,10.25
2019-05-10T06:41:55.982Z,10.00
2019-05-10T06:44:31.250Z,9.50
2019-05-10T06:47:08.247Z,9.50
2019-05-10T06:49:41.032Z,7.40
2019-05-10T06:52:16.358Z,9.50
2019-05-10T06:54:50.423Z,8.50
2019-05-10T06:57:24.143Z,6.75
2019-05-10T07:00:06.224Z,6.50
2019-05-10T07:02:33.263Z,7.40
2019-05-10T07:05:06.972Z,7.00
2019-05-10T07:07:44.710Z,6.00
2019-05-10T07:10:19.491Z,7.00
2019-05-10T07:12:56.996Z,9.00
2019-05-10T07:15:26.930Z,10.00
2019-05-10T07:18:00.690Z,10.00
2019-05-10T07:20:34.448Z,10.60
2019-05-10T07:23:08.168Z,7.25
2019-05-10T07:25:44.026Z,9.25
2019-05-10T07:28:17.823Z,9.00
2019-05-10T07:30:51.650Z,9.00
2019-05-10T07:33:25.366Z,9.60
2019-05-10T07:35:59.075Z,6.75
2019-05-10T07:38:32.929Z,7.00
2019-05-10T07:41:06.786Z,9.50
2019-05-10T07:43:40.754Z,10.75
2019-05-10T07:46:14.463Z,8.20
2019-05-10T07:48:53.518Z,10.00
2019-05-10T07:51:28.845Z,9.40
2019-05-10T07:54:04.497Z,9.00
2019-05-10T07:56:38.931Z,10.00
2019-05-10T07:59:09.849Z,9.75
2019-05-10T08:01:43.581Z,11.60
2019-05-10T08:04:25.232Z,11.00
2019-05-10T08:06:52.691Z,9.80
2019-05-10T08:09:26.424Z,10.50
2019-05-10T08:12:04.877Z,10.75
2019-05-10T08:14:35.544Z,11.40
2019-05-10T08:17:09.259Z,10.00
2019-05-10T08:19:42.977Z,10.50
2019-05-10T08:22:16.691Z,10.40
2019-05-10T08:24:52.652Z,9.75
2019-05-10T08:27:25.814Z,9.75
2019-05-10T08:30:17.802Z,11.20
2019-05-10T08:32:35.150Z,10.00
2019-05-10T08:35:15.956Z,10.00
2019-05-10T08:37:44.452Z,10.00
2019-05-10T08:40:19.833Z,11.60
2019-05-10T08:43:03.199Z,10.20
2019-05-10T08:45:28.993Z,8.50
2019-05-10T08:48:06.920Z,11.60
2019-05-10T08:50:49.687Z,10.25
2019-05-10T08:53:16.422Z,10.40
2019-05-10T08:55:49.300Z,9.25
2019-05-10T08:58:31.394Z,10.00
2019-05-10T09:01:12.123Z,10.00
2019-05-10T09:03:33.855Z,10.25
2019-05-10T09:06:12.020Z,10.40
2019-05-10T09:08:43.318Z,11.00
2019-05-10T09:11:17.107Z,7.00
2019-05-10T09:13:53.168Z,7.00
2019-05-10T09:16:29.097Z,7.00
2019-05-10T09:19:02.579Z,9.00
2019-05-10T09:21:40.956Z,7.50
2019-05-10T09:24:12.935Z,7.00
2019-05-10T09:26:51.615Z,7.40
2019-05-10T09:29:22.078Z,6.75
2019-05-10T09:31:55.799Z,10.00
2019-05-10T09:34:29.523Z,7.25
2019-05-10T09:37:08.216Z,8.25
2019-05-10T09:39:38.615Z,7.40
2019-05-10T09:42:24.963Z,9.60
2019-05-10T09:44:48.322Z,11.00
2019-05-10T09:47:22.270Z,10.00
2019-05-10T09:49:58.747Z,8.25
2019-05-10T09:52:31.438Z,10.00
2019-05-10T09:55:12.470Z,7.25
2019-05-10T09:57:41.045Z,7.75
2019-05-10T10:00:17.386Z,9.20
2019-05-10T10:02:56.402Z,10.00
2019-05-10T10:05:25.736Z,9.25
2019-05-10T10:08:03.575Z,9.25
2019-05-10T10:10:39.153Z,8.00
2019-05-10T10:13:33.983Z,8.50
2019-05-10T10:15:53.065Z,8.50
2019-05-10T10:18:28.757Z,6.50
2019-05-10T10:21:03.265Z,6.50
2019-05-10T10:23:37.722Z,5.40
2019-05-10T10:26:12.564Z,7.00
2019-05-10T10:28:49.729Z,8.20
2019-05-10T10:31:29.555Z,7.00
2019-05-10T10:34:00.343Z,7.00
2019-05-10T10:36:33.263Z,7.75
2019-05-10T10:39:07.569Z,8.00
2019-05-10T10:41:41.323Z,7.25
2019-05-10T10:44:15.052Z,8.00
2019-05-10T10:46:48.743Z,10.00
2019-05-10T10:49:23.061Z,10.00
2019-05-10T10:51:57.871Z,10.00
2019-05-10T10:54:36.478Z,7.75
2019-05-10T10:57:08.057Z,8.00
2019-05-10T10:59:41.914Z,7.00
2019-05-10T11:02:31.369Z,6.50
2019-05-10T11:04:51.030Z,8.25
2019-05-10T11:07:24.723Z,6.50
2019-05-10T11:10:08.151Z,7.75
2019-05-10T11:12:33.838Z,6.50
2019-05-10T11:15:07.547Z,7.00
2019-05-10T11:17:41.254Z,7.00
2019-05-10T11:20:14.968Z,7.00
2019-05-10T11:22:51.717Z,6.00
2019-05-10T11:25:24.084Z,7.50
2019-05-10T11:27:59.216Z,6.00
2019-05-10T11:30:33.198Z,6.00
2019-05-10T11:33:15.486Z,7.00
2019-05-10T11:35:42.282Z,6.20
2019-05-10T11:38:16.332Z,6.50
2019-05-10T11:40:50.196Z,8.00
2019-05-10T11:43:27.049Z,6.00
2019-05-10T11:45:59.374Z,7.00
2019-05-10T11:48:37.394Z,7.00
2019-05-10T11:51:12.281Z,5.75
2019-05-10T11:53:48.901Z,7.00
2019-05-10T11:56:25.042Z,7.50
2019-05-10T11:58:55.537Z,5.50
2019-05-10T12:01:29.495Z,4.75
2019-05-10T12:04:05.149Z,6.00
2019-05-10T12:06:41.367Z,7.80
2019-05-10T12:09:14.005Z,6.00
2019-05-10T12:11:56.621Z,6.00
2019-05-10T12:14:23.136Z,6.00
2019-05-10T12:16:56.880Z,6.50
2019-05-10T12:19:36.891Z,4.80
2019-05-10T12:22:05.985Z,7.00
2019-05-10T12:24:54.003Z,7.00
2019-05-10T12:27:25.402Z,6.75
2019-05-10T12:29:55.442Z,6.20
2019-05-10T12:32:26.967Z,5.50
2019-05-10T12:35:01.565Z,4.50
2019-05-10T12:37:39.412Z,6.00
2019-05-10T12:40:14.864Z,6.00
2019-05-10T12:42:47.140Z,4.75
2019-05-10T12:45:23.364Z,3.50
2019-05-10T12:47:56.572Z,4.80
2019-05-10T12:50:30.274Z,6.00
2019-05-10T12:53:14.314Z,4.00
2019-05-10T12:55:39.393Z,4.00
2019-05-10T12:58:13.896Z,5.60
2019-05-10T13:00:52.496Z,6.60
2019-05-10T13:03:25.260Z,4.50
2019-05-10T13:05:58.358Z,6.25
2019-05-10T13:08:32.054Z,7.00
2019-05-10T13:11:05.744Z,7.00
2019-05-10T13:13:39.461Z,7.75
2019-05-10T13:16:13.186Z,7.75
2019-05-10T13:18:51.819Z,7.00
2019-05-10T13:21:23.174Z,7.50
2019-05-10T13:23:57.041Z,7.00
2019-05-10T13:26:30.754Z,8.60
2019-05-10T13:29:08.270Z,5.00
2019-05-10T13:31:44.079Z,8.00
2019-05-10T13:34:15.282Z,8.00
2019-05-10T13:36:49.005Z,8.00
2019-05-10T13:39:25.537Z,7.20
2019-05-10T13:42:03.172Z,7.25
2019-05-10T13:44:37.009Z,7.50
2019-05-10T13:47:09.013Z,7.00
2019-05-10T13:49:42.722Z,7.80
2019-05-10T13:52:16.628Z,4.00
2019-05-10T13:54:50.320Z,6.75
2019-05-10T13:57:24.197Z,6.00
2019-05-10T13:59:57.889Z,6.00
2019-05-10T14:02:34.353Z,6.00
2019-05-10T14:05:11.797Z,6.20
2019-05-10T14:07:50.329Z,4.50
2019-05-10T14:10:22.796Z,6.00
2019-05-10T14:12:55.922Z,5.50
2019-05-10T14:15:28.653Z,6.00
2019-05-10T14:18:02.361Z,6.00
2019-05-10T14:20:36.067Z,6.00
2019-05-10T14:23:09.829Z,6.00
2019-05-10T14:25:43.535Z,5.75
2019-05-10T14:28:17.466Z,6.00
2019-05-10T14:30:57.047Z,4.00
2019-05-10T14:33:26.663Z,6.00
2019-05-10T14:36:02.766Z,7.00
2019-05-10T14:38:35.856Z,7.50
2019-05-10T14:41:11.617Z,6.25
2019-05-10T14:43:44.987Z,8.00
2019-05-10T14:46:18.696Z,6.00
2019-05-10T14:48:52.398Z,5.25
2019-05-10T14:51:40.376Z,4.60
2019-05-10T14:54:06.457Z,5.25
2019-05-10T14:56:36.910Z,4.50
2019-05-10T14:59:10.614Z,5.25
2019-05-10T15:01:45.513Z,7.00
2019-05-10T15:04:43.838Z,4.00
2019-05-10T15:06:54.902Z,5.50
2019-05-10T15:09:28.605Z,6.00
2019-05-10T15:12:02.310Z,4.00
2019-05-10T15:14:36.030Z,5.50
2019-05-10T15:17:09.730Z,6.50
2019-05-10T15:19:56.519Z,5.80
2019-05-10T15:22:22.984Z,6.50
2019-05-10T15:24:54.314Z,5.00
2019-05-10T15:27:28.139Z,3.00
2019-05-10T15:30:05.155Z,7.00
2019-05-10T15:32:37.638Z,4.60
2019-05-10T15:35:11.535Z,6.40
2019-05-10T15:37:48.301Z,5.25
2019-05-10T15:40:21.037Z,6.25
2019-05-10T15:42:56.507Z,6.25
2019-05-10T15:45:30.450Z,5.50
2019-05-10T15:48:04.613Z,6.00
2019-05-10T15:50:41.225Z,6.40
2019-05-10T15:53:19.566Z,6.00
2019-05-10T15:55:52.335Z,7.00
2019-05-10T15:58:30.576Z,6.00
2019-05-10T16:01:01.700Z,6.25
2019-05-10T16:03:40.149Z,6.00
2019-05-10T16:06:15.680Z,7.00
2019-05-10T16:08:49.599Z,7.00
2019-05-10T16:11:25.169Z,7.75
2019-05-10T16:14:00.114Z,7.25
2019-05-10T16:16:37.248Z,6.00
2019-05-10T16:19:12.934Z,6.25
2019-05-10T16:21:46.553Z,8.25
2019-05-10T16:24:26.146Z,8.00
2019-05-10T16:27:00.007Z,6.25
2019-05-10T16:29:33.653Z,8.50
2019-05-10T16:32:06.824Z,7.50
2019-05-10T16:34:40.569Z,8.00
2019-05-10T16:37:14.271Z,5.00
2019-05-10T16:39:47.980Z,7.00
2019-05-10T16:42:21.822Z,4.00
2019-05-10T16:44:55.595Z,7.00
2019-05-10T16:47:29.321Z,7.25
2019-05-10T16:50:07.194Z,7.00
2019-05-10T16:52:40.886Z,7.00
2019-05-10T16:55:14.593Z,7.60
2019-05-10T16:57:48.297Z,8.50
2019-05-10T17:00:22.287Z,3.25
2019-05-10T17:02:56.001Z,7.50
2019-05-10T17:05:29.709Z,6.60
2019-05-10T17:08:03.401Z,7.00
2019-05-10T17:10:37.135Z,7.50
2019-05-10T17:13:10.825Z,7.40
2019-05-10T17:15:44.534Z,7.00
2019-05-10T17:18:19.966Z,7.00
2019-05-10T17:20:53.688Z,7.00
2019-05-10T17:23:27.391Z,7.25
2019-05-10T17:26:01.118Z,4.25
2019-05-10T17:28:37.256Z,5.40
2019-05-10T17:31:10.246Z,7.25
2019-05-10T17:33:44.382Z,6.50
2019-05-10T17:36:19.885Z,7.25
2019-05-10T17:38:55.486Z,6.75
2019-05-10T17:41:28.978Z,5.25
2019-05-10T17:44:02.715Z,7.60
2019-05-10T17:46:36.404Z,7.00
2019-05-10T17:49:10.130Z,3.00
2019-05-10T17:51:43.853Z,4.40
2019-05-10T17:54:17.543Z,6.60
2019-05-10T17:56:51.255Z,5.25
2019-05-10T17:59:24.961Z,5.00
2019-05-10T18:01:58.672Z,4.00
2019-05-10T18:04:32.353Z,7.00
2019-05-10T18:07:06.088Z,7.00
2019-05-10T18:09:39.789Z,5.25
2019-05-10T18:14:55.959Z,5.00
2019-05-10T18:17:27.710Z,5.00
2019-05-10T18:20:02.377Z,6.00
2019-05-10T18:22:43.471Z,5.00
2019-05-10T18:25:19.429Z,4.25
2019-05-10T18:27:47.157Z,5.50
2019-05-10T18:30:20.867Z,4.00
2019-05-10T18:32:54.569Z,4.25
2019-05-10T18:35:28.259Z,5.00
2019-05-10T18:38:02.014Z,4.00
2019-05-10T18:40:35.712Z,5.25
2019-05-10T18:43:09.381Z,3.75
2019-05-10T18:45:43.083Z,4.00
2019-05-10T18:48:16.829Z,4.50
2019-05-10T18:50:50.561Z,3.50
2019-05-10T18:53:24.279Z,4.00
2019-05-10T18:55:57.988Z,3.00
2019-05-10T18:58:31.759Z,3.25
2019-05-10T19:01:05.446Z,4.00
2019-05-10T19:03:39.174Z,6.60
2019-05-10T19:06:13.569Z,6.00
2019-05-10T19:08:47.545Z,4.00
2019-05-10T19:11:21.352Z,6.80
2019-05-10T19:13:55.180Z,6.00
2019-05-10T19:16:32.139Z,7.50
2019-05-10T19:19:04.360Z,7.80
2019-05-10T19:21:38.363Z,8.00
2019-05-10T19:24:12.277Z,7.00
2019-05-10T19:26:45.978Z,7.25
2019-05-10T19:29:19.691Z,7.75
2019-05-10T19:31:53.406Z,6.00
2019-05-10T19:34:27.124Z,8.00
2019-05-10T19:37:00.835Z,7.50
2019-05-10T19:39:34.588Z,7.50
2019-05-10T19:42:08.337Z,7.40
2019-05-10T19:44:42.287Z,7.00
2019-05-10T19:47:17.625Z,9.00
2019-05-10T19:49:53.297Z,10.50
2019-05-10T19:52:27.884Z,8.25
2019-05-10T19:55:01.690Z,10.50
2019-05-10T19:57:35.411Z,7.80
2019-05-10T20:00:09.109Z,11.00
2019-05-10T20:02:42.821Z,8.25
2019-05-10T20:05:16.538Z,9.20
2019-05-10T20:07:50.269Z,10.25
2019-05-10T20:10:23.990Z,8.25
2019-05-10T20:12:57.729Z,9.25
2019-05-10T20:15:31.429Z,9.60
2019-05-10T20:18:05.477Z,7.75
2019-05-10T20:20:39.361Z,8.40
2019-05-10T20:23:13.735Z,6.20
2019-05-10T20:25:47.451Z,8.00
2019-05-10T20:28:21.170Z,7.75
2019-05-10T20:30:54.897Z,8.00
2019-05-10T20:33:28.591Z,6.00
2019-05-10T20:36:02.292Z,9.25
2019-05-10T20:38:36.009Z,8.25
2019-05-10T20:41:09.708Z,7.00
2019-05-10T20:43:43.423Z,8.40
2019-05-10T20:46:17.143Z,9.25
2019-05-10T20:48:50.867Z,8.00
2019-05-10T20:51:24.580Z,8.40
2019-05-10T20:53:58.283Z,8.00
2019-05-10T20:56:32.012Z,9.50
2019-05-10T20:59:05.730Z,9.20
2019-05-10T21:01:39.452Z,9.25
2019-05-10T21:04:13.144Z,9.25
2019-05-10T21:06:46.839Z,9.50
2019-05-10T21:09:20.547Z,7.75
2019-05-10T21:11:54.274Z,10.00
2019-05-10T21:14:28.072Z,11.00
2019-05-10T21:17:01.796Z,10.20
2019-05-10T21:19:35.530Z,8.00
2019-05-10T21:22:09.231Z,8.00
2019-05-10T21:24:42.938Z,10.20
2019-05-10T21:27:22.533Z,10.00
2019-05-10T21:29:52.621Z,10.00
2019-05-10T21:32:28.960Z,8.00
2019-05-10T21:35:02.678Z,8.00
2019-05-10T21:37:36.474Z,10.00
2019-05-10T21:40:10.204Z,7.25
2019-05-10T21:42:43.899Z,8.20
2019-05-10T21:45:17.626Z,8.40
2019-05-10T21:47:52.082Z,6.25
2019-05-10T21:50:25.940Z,6.50
2019-05-10T21:52:59.669Z,6.75
2019-05-10T21:55:33.382Z,6.00
2019-05-10T21:58:07.080Z,5.25
2019-05-10T22:00:40.795Z,7.50
2019-05-10T22:03:14.508Z,7.50
2019-05-10T22:05:48.215Z,7.00
2019-05-10T22:08:21.955Z,7.50
2019-05-10T22:10:55.687Z,7.00
2019-05-10T22:13:29.560Z,6.00
2019-05-10T22:16:03.248Z,6.50
2019-05-10T22:18:36.984Z,7.00
2019-05-10T22:21:10.697Z,6.75
2019-05-10T22:23:44.411Z,6.00
2019-05-10T22:26:18.130Z,7.00
2019-05-10T22:28:51.836Z,6.00
2019-05-10T22:31:25.552Z,6.00
2019-05-10T22:33:59.229Z,6.25
2019-05-10T22:36:32.938Z,5.75
2019-05-10T22:39:07.762Z,6.00
2019-05-10T22:41:41.771Z,6.00
2019-05-10T22:44:15.512Z,7.50
2019-05-10T22:46:49.223Z,6.20
2019-05-10T22:49:22.940Z,9.00
2019-05-10T22:51:56.675Z,6.75
2019-05-10T22:54:30.734Z,8.00
2019-05-10T22:57:04.458Z,7.00
2019-05-10T22:59:38.150Z,8.20
2019-05-10T23:02:11.867Z,5.00
2019-05-10T23:04:45.566Z,9.00
2019-05-10T23:07:19.365Z,7.80
2019-05-10T23:09:53.082Z,7.00
2019-05-10T23:12:26.796Z,9.00
2019-05-10T23:15:00.515Z,8.75
2019-05-10T23:17:34.228Z,7.50
2019-05-10T23:20:07.940Z,6.50
2019-05-10T23:22:41.629Z,7.25
2019-05-10T23:25:15.322Z,9.00
2019-05-10T23:27:49.074Z,8.50
2019-05-10T23:30:22.863Z,7.25
2019-05-10T23:32:56.579Z,9.00
2019-05-10T23:35:30.310Z,8.00
2019-05-10T23:38:04.017Z,9.00
2019-05-10T23:40:37.730Z,9.00
2019-05-10T23:43:11.451Z,7.20
2019-05-10T23:45:45.150Z,8.75
2019-05-10T23:48:18.889Z,9.25
2019-05-10T23:50:52.608Z,10.00
2019-05-10T23:53:26.340Z,10.00
2019-05-10T23:56:00.062Z,9.50
2019-05-10T23:58:33.792Z,9.00
